createdAt,value
2018-12-12T00:00:33.529Z,18.00
2018-12-12T00:01:34.682Z,18.00
2018-12-12T00:02:35.818Z,17.86
2018-12-12T00:03:36.949Z,18.00
2018-12-12T00:04:38.083Z,18.00
2018-12-12T00:05:39.214Z,18.00
2018-12-12T00:06:40.349Z,18.01
2018-12-12T00:07:41.531Z,18.00
2018-12-12T00:08:42.721Z,18.00
2018-12-12T00:09:43.883Z,17.99
2018-12-12T00:10:44.997Z,18.00
2018-12-12T00:11:46.113Z,17.99
2018-12-12T00:12:47.685Z,18.00
2018-12-12T00:13:48.809Z,18.00
2018-12-12T00:14:49.920Z,18.00
2018-12-12T00:15:51.053Z,18.01
2018-12-12T00:16:52.205Z,18.00
2018-12-12T00:17:53.581Z,18.00
2018-12-12T00:18:54.706Z,18.00
2018-12-12T00:19:55.854Z,17.87
2018-12-12T00:20:56.971Z,18.00
2018-12-12T00:21:58.102Z,18.01
2018-12-12T00:22:59.222Z,18.01
2018-12-12T00:24:00.361Z,18.00
2018-12-12T00:25:01.470Z,18.01
2018-12-12T00:26:02.717Z,18.00
2018-12-12T00:27:03.857Z,18.01
2018-12-12T00:28:05.001Z,18.00
2018-12-12T00:29:06.129Z,18.00
2018-12-12T00:30:07.269Z,18.00
2018-12-12T00:31:08.389Z,18.00
2018-12-12T00:32:09.509Z,17.99
2018-12-12T00:33:10.752Z,18.00
2018-12-12T00:34:11.886Z,17.99
2018-12-12T00:35:13.030Z,17.99
2018-12-12T00:36:14.163Z,17.99
2018-12-12T00:37:15.297Z,17.98
2018-12-12T00:38:16.421Z,17.98
2018-12-12T00:39:17.545Z,17.98
2018-12-12T00:40:18.666Z,17.97
2018-12-12T00:41:19.837Z,17.98
2018-12-12T00:42:20.956Z,17.97
2018-12-12T00:43:22.073Z,17.96
2018-12-12T00:44:23.193Z,17.97
2018-12-12T00:45:24.321Z,17.97
2018-12-12T00:46:25.453Z,17.97
2018-12-12T00:47:26.586Z,17.98
2018-12-12T00:48:27.719Z,17.97
2018-12-12T00:49:28.848Z,17.97
2018-12-12T00:50:29.977Z,17.98
2018-12-12T00:51:31.241Z,17.97
2018-12-12T00:52:32.429Z,17.97
2018-12-12T00:53:33.561Z,17.98
2018-12-12T00:54:34.836Z,17.99
2018-12-12T00:55:35.965Z,18.00
2018-12-12T00:56:37.090Z,18.00
2018-12-12T00:57:38.233Z,18.01
2018-12-12T00:58:39.410Z,18.01
2018-12-12T00:59:40.539Z,18.02
2018-12-12T01:00:41.663Z,18.03
2018-12-12T01:01:42.797Z,18.03
2018-12-12T01:02:43.949Z,18.03
2018-12-12T01:03:45.094Z,18.04
2018-12-12T01:04:46.245Z,18.04
2018-12-12T01:05:47.366Z,18.04
2018-12-12T01:06:48.481Z,18.04
2018-12-12T01:07:49.622Z,18.04
2018-12-12T01:08:50.788Z,18.05
2018-12-12T01:09:52.026Z,18.05
2018-12-12T01:11:05.989Z,18.04
2018-12-12T01:12:09.153Z,18.05
2018-12-12T01:13:10.273Z,18.03
2018-12-12T01:14:11.393Z,18.04
2018-12-12T01:15:12.521Z,18.03
2018-12-12T01:16:13.649Z,18.03
2018-12-12T01:17:14.767Z,18.03
2018-12-12T01:18:15.918Z,18.03
2018-12-12T01:19:17.057Z,18.02
2018-12-12T01:20:18.181Z,18.02
2018-12-12T01:21:19.298Z,18.01
2018-12-12T01:22:20.425Z,18.00
2018-12-12T01:23:21.529Z,18.01
2018-12-12T01:24:22.689Z,18.01
2018-12-12T01:25:23.828Z,18.01
2018-12-12T01:26:24.986Z,18.01
2018-12-12T01:27:26.136Z,18.00
2018-12-12T01:28:27.264Z,18.00
2018-12-12T01:29:28.381Z,18.00
2018-12-12T01:30:29.501Z,17.99
2018-12-12T01:31:30.617Z,18.00
2018-12-12T01:32:31.731Z,17.99
2018-12-12T01:33:32.834Z,18.00
2018-12-12T01:34:33.967Z,17.99
2018-12-12T01:35:35.118Z,17.98
2018-12-12T01:36:36.245Z,17.98
2018-12-12T01:37:37.349Z,17.98
2018-12-12T01:38:38.465Z,17.97
2018-12-12T01:39:39.585Z,17.98
2018-12-12T01:40:40.700Z,17.97
2018-12-12T01:41:41.822Z,17.97
2018-12-12T01:42:42.934Z,17.97
2018-12-12T01:43:50.961Z,17.96
2018-12-12T01:44:52.079Z,17.97
2018-12-12T01:45:53.217Z,17.91
2018-12-12T01:46:54.333Z,17.97
2018-12-12T01:47:55.457Z,17.96
2018-12-12T01:48:56.586Z,17.96
2018-12-12T01:50:04.777Z,17.97
2018-12-12T01:51:05.968Z,17.97
2018-12-12T01:52:07.151Z,17.96
2018-12-12T01:53:08.267Z,17.97
2018-12-12T01:54:09.394Z,17.96
2018-12-12T01:55:10.521Z,17.96
2018-12-12T01:56:11.657Z,17.96
2018-12-12T01:57:12.775Z,17.97
2018-12-12T01:58:13.910Z,17.98
2018-12-12T01:59:15.029Z,17.97
2018-12-12T02:00:16.161Z,17.98
2018-12-12T02:01:24.238Z,17.99
2018-12-12T02:02:25.378Z,17.99
2018-12-12T02:03:26.478Z,17.98
2018-12-12T02:04:27.592Z,17.99
2018-12-12T02:05:28.713Z,17.99
2018-12-12T02:06:36.796Z,17.98
2018-12-12T02:07:37.914Z,17.98
2018-12-12T02:08:39.058Z,17.98
2018-12-12T02:09:40.169Z,17.99
2018-12-12T02:10:41.355Z,17.98
2018-12-12T02:13:02.474Z,17.99
2018-12-12T02:14:03.626Z,17.98
2018-12-12T02:15:05.002Z,17.98
2018-12-12T02:16:07.178Z,17.98
2018-12-12T02:17:08.306Z,17.98
2018-12-12T02:18:09.437Z,17.97
2018-12-12T02:19:10.564Z,17.97
2018-12-12T02:20:11.938Z,17.98
2018-12-12T02:21:13.178Z,17.97
2018-12-12T02:22:14.305Z,17.97
2018-12-12T02:23:15.433Z,17.95
2018-12-12T02:24:16.574Z,17.96
2018-12-12T02:25:17.697Z,17.96
2018-12-12T02:26:18.844Z,17.96
2018-12-12T02:27:19.952Z,17.95
2018-12-12T02:28:21.062Z,17.95
2018-12-12T02:29:22.193Z,17.96
2018-12-12T02:30:23.310Z,17.95
2018-12-12T02:31:24.442Z,17.94
2018-12-12T02:32:25.569Z,17.95
2018-12-12T02:33:26.713Z,17.94
2018-12-12T02:34:27.843Z,17.94
2018-12-12T02:35:28.981Z,17.94
2018-12-12T02:36:30.125Z,17.93
2018-12-12T02:37:31.278Z,17.94
2018-12-12T02:38:32.411Z,17.94
2018-12-12T02:39:33.540Z,17.92
2018-12-12T02:40:34.669Z,17.93
2018-12-12T02:41:35.930Z,17.93
2018-12-12T02:42:37.062Z,17.93
2018-12-12T02:43:38.186Z,17.92
2018-12-12T02:44:39.299Z,17.92
2018-12-12T02:45:40.450Z,17.92
2018-12-12T02:46:41.701Z,17.92
2018-12-12T02:47:42.814Z,17.93
2018-12-12T02:48:43.980Z,17.90
2018-12-12T02:49:45.086Z,17.91
2018-12-12T02:50:46.220Z,17.92
2018-12-12T02:51:47.370Z,17.92
2018-12-12T02:52:55.394Z,17.91
2018-12-12T02:53:56.518Z,17.91
2018-12-12T02:54:57.642Z,17.90
2018-12-12T02:55:58.791Z,17.91
2018-12-12T02:56:59.913Z,17.91
2018-12-12T02:58:01.058Z,17.91
2018-12-12T02:59:02.194Z,17.90
2018-12-12T03:00:04.900Z,17.91
2018-12-12T03:01:06.111Z,17.92
2018-12-12T03:02:07.271Z,17.93
2018-12-12T03:03:08.389Z,17.93
2018-12-12T03:04:09.530Z,17.94
2018-12-12T03:05:10.789Z,17.94
2018-12-12T03:06:11.913Z,17.94
2018-12-12T03:07:13.025Z,17.94
2018-12-12T03:08:14.257Z,17.95
2018-12-12T03:09:15.377Z,17.97
2018-12-12T03:10:16.506Z,17.96
2018-12-12T03:11:19.691Z,17.97
2018-12-12T03:12:20.820Z,17.97
2018-12-12T03:13:21.951Z,17.97
2018-12-12T03:14:23.073Z,17.97
2018-12-12T03:15:24.276Z,17.98
2018-12-12T03:16:25.469Z,17.97
2018-12-12T03:17:33.517Z,17.98
2018-12-12T03:18:34.634Z,17.98
2018-12-12T03:19:35.778Z,17.98
2018-12-12T03:20:36.913Z,17.98
2018-12-12T03:21:38.033Z,17.98
2018-12-12T03:22:39.163Z,17.97
2018-12-12T03:23:40.294Z,17.97
2018-12-12T03:24:41.417Z,17.97
2018-12-12T03:25:42.539Z,17.97
2018-12-12T03:26:43.673Z,17.97
2018-12-12T03:27:44.805Z,17.97
2018-12-12T03:28:45.929Z,17.96
2018-12-12T03:29:47.033Z,17.96
2018-12-12T03:30:48.156Z,17.96
2018-12-12T03:31:49.279Z,17.95
2018-12-12T03:32:50.402Z,17.95
2018-12-12T03:33:51.637Z,17.95
2018-12-12T03:34:52.758Z,17.94
2018-12-12T03:35:53.881Z,17.93
2018-12-12T03:36:55.015Z,17.94
2018-12-12T03:37:56.134Z,17.93
2018-12-12T03:38:57.333Z,17.93
2018-12-12T03:39:58.895Z,17.92
2018-12-12T03:41:00.071Z,17.92
2018-12-12T03:42:01.246Z,17.91
2018-12-12T03:43:02.424Z,17.90
2018-12-12T03:44:03.598Z,17.91
2018-12-12T03:45:04.880Z,17.90
2018-12-12T03:46:06.009Z,17.90
2018-12-12T03:47:07.135Z,17.90
2018-12-12T03:48:08.245Z,17.89
2018-12-12T03:49:09.411Z,17.90
2018-12-12T03:50:10.550Z,17.89
2018-12-12T03:51:11.678Z,17.89
2018-12-12T03:52:12.826Z,17.88
2018-12-12T03:53:13.931Z,17.87
2018-12-12T03:54:15.057Z,17.87
2018-12-12T03:55:16.183Z,17.88
2018-12-12T03:56:17.308Z,17.86
2018-12-12T03:57:18.450Z,17.87
2018-12-12T03:58:19.603Z,17.86
2018-12-12T03:59:20.747Z,17.86
2018-12-12T04:00:21.894Z,17.86
2018-12-12T04:01:23.027Z,17.85
2018-12-12T04:02:24.161Z,17.87
2018-12-12T04:03:25.286Z,17.86
2018-12-12T04:04:26.412Z,17.86
2018-12-12T04:05:27.533Z,17.86
2018-12-12T04:06:28.655Z,17.86
2018-12-12T04:07:29.802Z,17.86
2018-12-12T04:08:30.961Z,17.86
2018-12-12T04:09:32.157Z,17.86
2018-12-12T04:10:33.296Z,17.85
2018-12-12T04:11:34.511Z,17.86
2018-12-12T04:12:35.633Z,17.87
2018-12-12T04:13:36.775Z,17.86
2018-12-12T04:14:37.925Z,17.86
2018-12-12T04:15:39.320Z,17.87
2018-12-12T04:16:40.469Z,17.86
2018-12-12T04:17:48.573Z,17.88
2018-12-12T04:18:49.930Z,17.87
2018-12-12T04:19:51.040Z,17.88
2018-12-12T04:20:52.178Z,17.89
2018-12-12T04:22:00.301Z,17.89
2018-12-12T04:23:01.567Z,17.88
2018-12-12T04:24:02.784Z,17.87
2018-12-12T04:25:04.586Z,17.88
2018-12-12T04:26:05.702Z,17.88
2018-12-12T04:27:06.830Z,17.88
2018-12-12T04:28:07.949Z,17.89
2018-12-12T04:29:09.072Z,17.88
2018-12-12T04:30:10.198Z,17.88
2018-12-12T04:31:11.317Z,17.88
2018-12-12T04:32:12.426Z,17.88
2018-12-12T04:33:13.543Z,17.88
2018-12-12T04:34:14.684Z,17.87
2018-12-12T04:35:15.815Z,17.87
2018-12-12T04:36:16.942Z,17.87
2018-12-12T04:37:18.085Z,17.88
2018-12-12T04:38:19.197Z,17.87
2018-12-12T04:39:20.322Z,17.87
2018-12-12T04:40:21.437Z,17.86
2018-12-12T04:41:22.694Z,17.86
2018-12-12T04:42:23.821Z,17.87
2018-12-12T04:43:24.957Z,17.86
2018-12-12T04:44:26.070Z,17.85
2018-12-12T04:45:27.187Z,17.85
2018-12-12T04:46:28.315Z,17.85
2018-12-12T04:47:29.429Z,17.84
2018-12-12T04:48:30.541Z,17.84
2018-12-12T04:49:31.667Z,17.83
2018-12-12T04:50:32.790Z,17.85
2018-12-12T04:51:33.929Z,17.84
2018-12-12T04:52:35.112Z,17.84
2018-12-12T04:53:36.236Z,17.84
2018-12-12T04:54:37.367Z,17.84
2018-12-12T04:55:38.511Z,17.84
2018-12-12T04:56:39.613Z,17.84
2018-12-12T04:57:40.771Z,17.83
2018-12-12T04:58:41.879Z,17.83
2018-12-12T04:59:43.001Z,17.83
2018-12-12T05:00:44.129Z,17.84
2018-12-12T05:01:45.243Z,17.84
2018-12-12T05:02:46.736Z,17.84
2018-12-12T05:03:47.913Z,17.83
2018-12-12T05:04:49.494Z,17.83
2018-12-12T05:05:50.613Z,17.83
2018-12-12T05:06:51.753Z,17.83
2018-12-12T05:07:53.001Z,17.83
2018-12-12T05:08:54.118Z,17.83
2018-12-12T05:09:55.237Z,17.83
2018-12-12T05:10:56.333Z,17.83
2018-12-12T05:11:57.471Z,17.83
2018-12-12T05:12:58.595Z,17.84
2018-12-12T05:13:59.841Z,17.83
2018-12-12T05:15:00.970Z,17.84
2018-12-12T05:16:02.078Z,17.83
2018-12-12T05:17:03.350Z,17.83
2018-12-12T05:18:04.471Z,17.84
2018-12-12T05:19:05.602Z,17.84
2018-12-12T05:20:06.801Z,17.85
2018-12-12T05:21:07.937Z,17.85
2018-12-12T05:22:09.069Z,17.84
2018-12-12T05:23:10.195Z,17.86
2018-12-12T05:24:11.433Z,17.86
2018-12-12T05:25:12.550Z,17.86
2018-12-12T05:26:13.681Z,17.87
2018-12-12T05:27:14.800Z,17.87
2018-12-12T05:28:22.817Z,17.86
2018-12-12T05:29:23.952Z,17.87
2018-12-12T05:30:25.089Z,17.87
2018-12-12T05:31:26.205Z,17.88
2018-12-12T05:32:27.321Z,17.87
2018-12-12T05:33:28.445Z,17.87
2018-12-12T05:34:29.546Z,17.87
2018-12-12T05:35:30.673Z,17.87
2018-12-12T05:36:31.805Z,17.87
2018-12-12T05:37:32.939Z,17.88
2018-12-12T05:38:34.064Z,17.87
2018-12-12T05:39:35.181Z,17.87
2018-12-12T05:40:37.409Z,17.86
2018-12-12T05:41:38.546Z,17.87
2018-12-12T05:42:39.813Z,17.86
2018-12-12T05:43:40.933Z,17.85
2018-12-12T05:44:42.180Z,17.86
2018-12-12T05:45:43.434Z,17.86
2018-12-12T05:46:44.562Z,17.86
2018-12-12T05:47:45.691Z,17.86
2018-12-12T05:48:46.797Z,17.86
2018-12-12T05:49:47.971Z,17.84
2018-12-12T05:50:49.105Z,17.84
2018-12-12T05:51:50.222Z,17.85
2018-12-12T05:52:51.350Z,17.84
2018-12-12T05:53:52.478Z,17.85
2018-12-12T05:54:53.608Z,17.84
2018-12-12T05:55:54.751Z,17.85
2018-12-12T05:56:55.862Z,17.84
2018-12-12T05:57:56.986Z,17.84
2018-12-12T05:58:58.101Z,17.84
2018-12-12T05:59:59.217Z,17.84
2018-12-12T06:01:00.353Z,17.85
2018-12-12T06:02:01.475Z,17.84
2018-12-12T06:03:02.748Z,17.83
2018-12-12T06:04:03.882Z,17.83
2018-12-12T06:05:05.065Z,17.84
2018-12-12T06:06:06.211Z,17.84
2018-12-12T06:07:07.334Z,17.83
2018-12-12T06:08:08.445Z,17.83
2018-12-12T06:09:10.544Z,17.83
2018-12-12T06:10:11.677Z,17.84
2018-12-12T06:11:12.794Z,17.84
2018-12-12T06:12:13.922Z,17.84
2018-12-12T06:13:15.035Z,17.83
2018-12-12T06:14:16.145Z,17.83
2018-12-12T06:15:17.266Z,17.84
2018-12-12T06:16:18.409Z,17.84
2018-12-12T06:17:19.541Z,17.84
2018-12-12T06:18:20.665Z,17.84
2018-12-12T06:19:21.778Z,17.83
2018-12-12T06:20:22.905Z,17.85
2018-12-12T06:21:24.030Z,17.84
2018-12-12T06:22:25.385Z,17.84
2018-12-12T06:23:26.512Z,17.85
2018-12-12T06:24:27.659Z,17.84
2018-12-12T06:25:28.808Z,17.84
2018-12-12T06:26:29.924Z,17.85
2018-12-12T06:27:31.042Z,17.84
2018-12-12T06:28:32.175Z,17.85
2018-12-12T06:29:33.289Z,17.85
2018-12-12T06:30:34.432Z,17.85
2018-12-12T06:31:35.557Z,17.86
2018-12-12T06:32:36.757Z,17.87
2018-12-12T06:33:37.890Z,17.88
2018-12-12T06:34:39.001Z,17.91
2018-12-12T06:35:40.121Z,17.91
2018-12-12T06:36:41.257Z,17.93
2018-12-12T06:37:42.390Z,17.96
2018-12-12T06:38:43.542Z,17.97
2018-12-12T06:39:44.682Z,17.99
2018-12-12T06:40:45.798Z,18.00
2018-12-12T06:41:46.925Z,18.01
2018-12-12T06:42:48.044Z,18.03
2018-12-12T06:43:49.183Z,18.04
2018-12-12T06:44:50.301Z,18.03
2018-12-12T06:45:51.429Z,18.04
2018-12-12T06:46:59.625Z,18.04
2018-12-12T06:48:00.765Z,18.05
2018-12-12T06:49:01.890Z,18.06
2018-12-12T06:50:03.677Z,18.05
2018-12-12T06:51:04.873Z,18.04
2018-12-12T06:52:05.995Z,18.04
2018-12-12T06:53:07.102Z,18.03
2018-12-12T06:54:08.230Z,18.02
2018-12-12T06:55:09.469Z,18.01
2018-12-12T06:56:10.605Z,18.00
2018-12-12T06:57:11.739Z,17.98
2018-12-12T06:58:12.858Z,17.99
2018-12-12T06:59:13.974Z,17.97
2018-12-12T07:00:15.121Z,17.96
2018-12-12T07:01:16.238Z,17.94
2018-12-12T07:02:17.353Z,17.93
2018-12-12T07:03:18.472Z,17.93
2018-12-12T07:04:19.593Z,17.92
2018-12-12T07:05:20.714Z,17.92
2018-12-12T07:06:21.838Z,17.92
2018-12-12T07:07:23.105Z,17.90
2018-12-12T07:08:24.256Z,17.90
2018-12-12T07:09:25.388Z,17.89
2018-12-12T07:10:26.537Z,17.89
2018-12-12T07:11:27.666Z,17.88
2018-12-12T07:12:28.793Z,17.89
2018-12-12T07:13:35.538Z,17.88
2018-12-12T07:14:33.065Z,17.87
2018-12-12T07:15:34.325Z,17.87
2018-12-12T07:16:35.452Z,17.86
2018-12-12T07:17:37.527Z,17.85
2018-12-12T07:18:38.649Z,17.84
2018-12-12T07:19:39.773Z,17.85
2018-12-12T07:20:41.016Z,17.83
2018-12-12T07:21:42.145Z,17.83
2018-12-12T07:22:43.271Z,17.84
2018-12-12T07:23:44.385Z,17.83
2018-12-12T07:24:45.498Z,17.81
2018-12-12T07:25:46.646Z,17.80
2018-12-12T07:26:47.881Z,17.82
2018-12-12T07:27:49.009Z,17.80
2018-12-12T07:28:50.145Z,17.81
2018-12-12T07:29:51.257Z,17.82
2018-12-12T07:30:52.394Z,17.80
2018-12-12T07:31:53.514Z,17.81
2018-12-12T07:32:54.675Z,17.82
2018-12-12T07:34:00.969Z,17.80
2018-12-12T07:34:59.285Z,17.80
2018-12-12T07:36:00.423Z,17.81
2018-12-12T07:37:01.573Z,17.82
2018-12-12T07:38:02.853Z,17.82
2018-12-12T07:39:06.529Z,17.81
2018-12-12T07:40:07.833Z,17.83
2018-12-12T07:41:08.949Z,17.82
2018-12-12T07:42:10.070Z,17.82
2018-12-12T07:43:11.233Z,17.83
2018-12-12T07:44:12.367Z,17.83
2018-12-12T07:45:13.649Z,17.83
2018-12-12T07:46:14.781Z,17.83
2018-12-12T07:47:15.914Z,17.83
2018-12-12T07:48:17.143Z,17.82
2018-12-12T07:49:18.413Z,17.83
2018-12-12T07:50:19.541Z,17.83
2018-12-12T07:51:20.666Z,17.83
2018-12-12T07:52:21.811Z,17.84
2018-12-12T07:53:22.921Z,17.83
2018-12-12T07:54:24.050Z,17.83
2018-12-12T07:55:25.173Z,17.83
2018-12-12T07:56:26.298Z,17.83
2018-12-12T07:57:27.419Z,17.82
2018-12-12T07:58:28.553Z,17.81
2018-12-12T07:59:29.681Z,17.82
2018-12-12T08:00:30.837Z,17.81
2018-12-12T08:01:31.973Z,17.82
2018-12-12T08:02:33.109Z,17.80
2018-12-12T08:03:34.238Z,17.81
2018-12-12T08:04:35.361Z,17.79
2018-12-12T08:05:36.497Z,17.80
2018-12-12T08:06:37.621Z,17.80
2018-12-12T08:07:38.737Z,17.79
2018-12-12T08:08:39.897Z,17.79
2018-12-12T08:09:41.126Z,17.78
2018-12-12T08:10:42.256Z,17.78
2018-12-12T08:11:43.387Z,17.77
2018-12-12T08:12:44.519Z,17.78
2018-12-12T08:13:45.622Z,17.76
2018-12-12T08:14:46.749Z,17.76
2018-12-12T08:15:47.882Z,17.75
2018-12-12T08:16:49.003Z,17.76
2018-12-12T08:17:50.229Z,17.76
2018-12-12T08:18:51.377Z,17.76
2018-12-12T08:19:52.531Z,17.76
2018-12-12T08:20:53.677Z,17.75
2018-12-12T08:21:54.809Z,17.75
2018-12-12T08:22:56.669Z,17.76
2018-12-12T08:23:57.790Z,17.75
2018-12-12T08:24:58.889Z,17.75
2018-12-12T08:26:00.152Z,17.76
2018-12-12T08:27:01.264Z,17.76
2018-12-12T08:28:02.515Z,17.75
2018-12-12T08:29:03.702Z,17.75
2018-12-12T08:30:06.373Z,17.74
2018-12-12T08:31:07.505Z,17.73
2018-12-12T08:32:08.642Z,17.74
2018-12-12T08:33:11.338Z,17.74
2018-12-12T08:34:12.829Z,17.73
2018-12-12T08:35:13.965Z,17.73
2018-12-12T08:36:15.086Z,17.72
2018-12-12T08:37:16.197Z,17.73
2018-12-12T08:38:17.376Z,17.72
2018-12-12T08:39:18.510Z,17.72
2018-12-12T08:40:19.649Z,17.72
2018-12-12T08:41:20.807Z,17.72
2018-12-12T08:42:21.957Z,17.73
2018-12-12T08:43:23.085Z,17.72
2018-12-12T08:44:24.214Z,17.73
2018-12-12T08:45:25.359Z,17.73
2018-12-12T08:46:26.482Z,17.73
2018-12-12T08:47:27.605Z,17.72
2018-12-12T08:48:28.719Z,17.73
2018-12-12T08:49:29.841Z,17.73
2018-12-12T08:50:38.083Z,17.74
2018-12-12T08:51:39.206Z,17.74
2018-12-12T08:52:40.330Z,17.74
2018-12-12T08:53:41.443Z,17.74
2018-12-12T08:54:42.605Z,17.74
2018-12-12T08:55:43.734Z,17.74
2018-12-12T08:56:44.858Z,17.75
2018-12-12T08:57:45.990Z,17.74
2018-12-12T08:58:47.121Z,17.75
2018-12-12T08:59:48.263Z,17.75
2018-12-12T09:00:49.404Z,17.75
2018-12-12T09:01:50.851Z,17.76
2018-12-12T09:02:51.998Z,17.76
2018-12-12T09:03:53.144Z,17.77
2018-12-12T09:04:54.269Z,17.77
2018-12-12T09:05:55.390Z,17.76
2018-12-12T09:06:56.493Z,17.76
2018-12-12T09:07:57.681Z,17.77
2018-12-12T09:08:58.826Z,17.76
2018-12-12T09:09:59.961Z,17.76
2018-12-12T09:11:01.114Z,17.76
2018-12-12T09:12:02.389Z,17.76
2018-12-12T09:13:03.526Z,17.76
2018-12-12T09:14:04.645Z,17.76
2018-12-12T09:15:06.009Z,17.76
2018-12-12T09:16:07.114Z,17.77
2018-12-12T09:17:09.886Z,17.76
2018-12-12T09:18:11.317Z,17.76
2018-12-12T09:19:12.425Z,17.76
2018-12-12T09:20:13.580Z,17.74
2018-12-12T09:21:14.803Z,17.75
2018-12-12T09:22:15.936Z,17.75
2018-12-12T09:23:17.076Z,17.75
2018-12-12T09:24:18.201Z,17.74
2018-12-12T09:25:19.326Z,17.74
2018-12-12T09:26:20.434Z,17.74
2018-12-12T09:27:21.578Z,17.72
2018-12-12T09:28:22.686Z,17.73
2018-12-12T09:29:23.799Z,17.73
2018-12-12T09:30:24.930Z,17.73
2018-12-12T09:31:26.066Z,17.72
2018-12-12T09:32:27.177Z,17.73
2018-12-12T09:33:28.318Z,17.71
2018-12-12T09:34:29.438Z,17.71
2018-12-12T09:35:30.547Z,17.71
2018-12-12T09:36:31.661Z,17.71
2018-12-12T09:37:32.822Z,17.71
2018-12-12T09:38:33.966Z,17.70
2018-12-12T09:39:35.094Z,17.70
2018-12-12T09:40:36.461Z,17.69
2018-12-12T09:41:37.590Z,17.71
2018-12-12T09:42:38.709Z,17.69
2018-12-12T09:43:39.829Z,17.69
2018-12-12T09:44:40.957Z,17.69
2018-12-12T09:45:42.077Z,17.69
2018-12-12T09:46:43.217Z,17.69
2018-12-12T09:47:44.356Z,17.69
2018-12-12T09:48:45.511Z,17.69
2018-12-12T09:49:46.625Z,17.70
2018-12-12T09:50:47.781Z,17.69
2018-12-12T09:51:48.922Z,17.69
2018-12-12T09:52:50.032Z,17.69
2018-12-12T09:53:51.148Z,17.70
2018-12-12T09:54:52.273Z,17.70
2018-12-12T09:55:53.385Z,17.70
2018-12-12T09:56:54.494Z,17.70
2018-12-12T09:57:55.614Z,17.71
2018-12-12T09:58:56.764Z,17.70
2018-12-12T09:59:57.881Z,17.72
2018-12-12T10:00:59.013Z,17.72
2018-12-12T10:02:00.122Z,17.72
2018-12-12T10:03:01.246Z,17.72
2018-12-12T10:04:02.517Z,17.71
2018-12-12T10:05:03.865Z,17.72
2018-12-12T10:06:04.995Z,17.72
2018-12-12T10:07:06.146Z,17.73
2018-12-12T10:08:07.297Z,17.73
2018-12-12T10:09:08.417Z,17.72
2018-12-12T10:10:09.529Z,17.73
2018-12-12T10:11:10.658Z,17.73
2018-12-12T10:12:11.789Z,17.73
2018-12-12T10:13:12.921Z,17.73
2018-12-12T10:14:14.034Z,17.73
2018-12-12T10:15:15.182Z,17.73
2018-12-12T10:16:16.317Z,17.73
2018-12-12T10:17:17.458Z,17.74
2018-12-12T10:18:18.586Z,17.73
2018-12-12T10:19:19.698Z,17.73
2018-12-12T10:20:20.830Z,17.72
2018-12-12T10:21:21.962Z,17.72
2018-12-12T10:22:23.095Z,17.72
2018-12-12T10:23:24.215Z,17.73
2018-12-12T10:24:25.345Z,17.72
2018-12-12T10:25:26.470Z,17.73
2018-12-12T10:26:27.631Z,17.72
2018-12-12T10:27:28.742Z,17.73
2018-12-12T10:28:29.853Z,17.71
2018-12-12T10:29:30.974Z,17.71
2018-12-12T10:30:32.211Z,17.71
2018-12-12T10:31:33.374Z,17.71
2018-12-12T10:32:34.494Z,17.70
2018-12-12T10:33:37.864Z,17.69
2018-12-12T10:34:38.780Z,17.71
2018-12-12T10:35:39.906Z,17.69
2018-12-12T10:36:41.022Z,17.69
2018-12-12T10:37:42.146Z,17.68
2018-12-12T10:38:43.286Z,17.68
2018-12-12T10:39:44.441Z,17.68
2018-12-12T10:40:45.569Z,17.68
2018-12-12T10:41:46.698Z,17.68
2018-12-12T10:42:47.829Z,17.67
2018-12-12T10:43:48.960Z,17.66
2018-12-12T10:44:50.099Z,17.67
2018-12-12T10:45:51.241Z,17.67
2018-12-12T10:46:52.357Z,17.67
2018-12-12T10:47:53.478Z,17.67
2018-12-12T10:48:54.602Z,17.66
2018-12-12T10:49:55.732Z,17.66
2018-12-12T10:50:56.853Z,17.66
2018-12-12T10:51:57.970Z,17.66
2018-12-12T10:52:59.095Z,17.66
2018-12-12T10:54:00.966Z,17.65
2018-12-12T10:55:03.676Z,17.65
2018-12-12T10:56:04.801Z,17.65
2018-12-12T10:57:05.929Z,17.65
2018-12-12T10:58:07.054Z,17.66
2018-12-12T10:59:08.188Z,17.65
2018-12-12T11:00:12.752Z,17.67
2018-12-12T11:01:18.578Z,17.66
2018-12-12T11:02:25.934Z,17.67
2018-12-12T11:03:32.302Z,17.68
2018-12-12T11:04:33.434Z,17.69
2018-12-12T11:05:34.689Z,17.68
2018-12-12T11:06:35.829Z,17.67
2018-12-12T11:07:36.955Z,17.67
2018-12-12T11:08:38.074Z,17.67
2018-12-12T11:09:39.226Z,17.67
2018-12-12T11:10:40.489Z,17.67
2018-12-12T11:11:41.649Z,17.68
2018-12-12T11:12:42.790Z,17.68
2018-12-12T11:13:43.926Z,17.68
2018-12-12T11:14:45.059Z,17.68
2018-12-12T11:15:46.181Z,17.68
2018-12-12T11:16:47.302Z,17.67
2018-12-12T11:17:48.425Z,17.68
2018-12-12T11:18:49.545Z,17.69
2018-12-12T11:19:50.693Z,17.68
2018-12-12T11:20:51.829Z,17.69
2018-12-12T11:21:52.956Z,17.68
2018-12-12T11:22:54.090Z,17.68
2018-12-12T11:23:55.238Z,17.68
2018-12-12T11:24:56.724Z,17.69
2018-12-12T11:25:57.832Z,17.70
2018-12-12T11:26:58.961Z,17.68
2018-12-12T11:28:00.074Z,17.69
2018-12-12T11:29:01.190Z,17.70
2018-12-12T11:30:04.495Z,17.68
2018-12-12T11:31:05.761Z,17.69
2018-12-12T11:32:06.997Z,17.68
2018-12-12T11:33:08.126Z,17.68
2018-12-12T11:34:09.361Z,17.66
2018-12-12T11:35:10.511Z,17.66
2018-12-12T11:36:11.630Z,17.66
2018-12-12T11:37:19.733Z,17.66
2018-12-12T11:38:20.861Z,17.66
2018-12-12T11:39:22.010Z,17.65
2018-12-12T11:40:23.145Z,17.65
2018-12-12T11:41:24.261Z,17.65
2018-12-12T11:42:25.414Z,17.65
2018-12-12T11:43:26.532Z,17.65
2018-12-12T11:44:27.657Z,17.64
2018-12-12T11:45:28.798Z,17.64
2018-12-12T11:46:29.973Z,17.64
2018-12-12T11:47:31.152Z,17.63
2018-12-12T11:48:32.261Z,17.62
2018-12-12T11:49:33.381Z,17.63
2018-12-12T11:50:34.513Z,17.61
2018-12-12T11:51:35.639Z,17.61
2018-12-12T11:52:36.769Z,17.61
2018-12-12T11:53:37.895Z,17.60
2018-12-12T11:54:39.026Z,17.60
2018-12-12T11:55:40.251Z,17.60
2018-12-12T11:56:41.418Z,17.60
2018-12-12T11:57:42.688Z,17.59
2018-12-12T11:58:43.800Z,17.58
2018-12-12T11:59:44.937Z,17.59
2018-12-12T12:00:46.066Z,17.61
2018-12-12T12:01:47.209Z,17.63
2018-12-12T12:02:48.358Z,17.65
2018-12-12T12:03:49.499Z,17.68
2018-12-12T12:04:50.617Z,17.69
2018-12-12T12:05:51.785Z,17.70
2018-12-12T12:06:52.971Z,17.73
2018-12-12T12:07:54.150Z,17.75
2018-12-12T12:08:55.280Z,17.77
2018-12-12T12:09:56.403Z,17.80
2018-12-12T12:10:57.521Z,17.83
2018-12-12T12:11:58.650Z,17.83
2018-12-12T12:12:59.765Z,17.85
2018-12-12T12:15:29.073Z,17.91
2018-12-12T12:16:30.201Z,17.91
2018-12-12T12:17:31.383Z,17.92
2018-12-12T12:18:32.498Z,17.93
2018-12-12T12:19:33.809Z,17.94
2018-12-12T12:20:34.929Z,17.94
2018-12-12T12:21:36.065Z,17.95
2018-12-12T12:22:37.258Z,17.95
2018-12-12T12:23:38.399Z,17.96
2018-12-12T12:24:39.570Z,17.94
2018-12-12T12:25:40.705Z,17.96
2018-12-12T12:26:41.982Z,17.97
2018-12-12T12:27:43.094Z,17.85
2018-12-12T12:28:44.221Z,17.97
2018-12-12T12:29:45.566Z,17.97
2018-12-12T12:30:46.710Z,17.97
2018-12-12T12:31:47.853Z,17.97
2018-12-12T12:32:48.979Z,17.96
2018-12-12T12:33:50.157Z,17.97
2018-12-12T12:34:51.265Z,17.95
2018-12-12T12:35:52.395Z,17.95
2018-12-12T12:36:53.654Z,17.95
2018-12-12T12:37:54.851Z,17.93
2018-12-12T12:38:56.009Z,17.93
2018-12-12T12:39:57.154Z,17.92
2018-12-12T12:40:58.269Z,17.91
2018-12-12T12:41:59.421Z,17.91
2018-12-12T12:43:00.555Z,17.90
2018-12-12T12:44:01.686Z,17.75
2018-12-12T12:45:03.765Z,17.90
2018-12-12T12:46:04.898Z,17.89
2018-12-12T12:47:13.033Z,17.88
2018-12-12T12:48:14.253Z,17.88
2018-12-12T12:49:15.391Z,17.89
2018-12-12T12:50:16.522Z,17.89
2018-12-12T12:51:17.633Z,17.89
2018-12-12T12:52:18.753Z,17.89
2018-12-12T12:53:19.865Z,17.90
2018-12-12T12:54:21.006Z,17.89
2018-12-12T12:55:22.121Z,17.90
2018-12-12T12:56:23.279Z,17.90
2018-12-12T12:57:24.450Z,17.90
2018-12-12T12:58:25.613Z,17.90
2018-12-12T12:59:26.769Z,17.91
2018-12-12T13:00:27.874Z,17.90
2018-12-12T13:01:29.000Z,17.90
2018-12-12T13:02:30.136Z,17.89
2018-12-12T13:03:31.281Z,17.88
2018-12-12T13:04:32.399Z,17.88
2018-12-12T13:05:33.517Z,17.86
2018-12-12T13:06:34.661Z,17.86
2018-12-12T13:07:35.809Z,17.84
2018-12-12T13:08:36.934Z,17.84
2018-12-12T13:10:45.925Z,17.82
2018-12-12T13:11:47.058Z,17.81
2018-12-12T13:12:48.314Z,17.80
2018-12-12T13:13:49.433Z,17.79